Station: EHBK - 22/02/2018 00:25Z (il y a 12 minutes)
EHBK 220025Z AUTO 04008KT 8000 NCD M03/M05 Q1022
Vent du 040º - 8 kt
Visibilité: 8000 m
Pas de nuages détectés
Température: -03ºC - Point de rosée: -05ºC - QNH: 1022 hPa